Terminal Aerodrome Forecast
Issued by NWS

Home | Current Version | Previous Version | Graphics & Text | Print | Product List | Glossary On
Versions: 1 2 3 4 5 6 7 8 9 10 11 12 13 14 15 16
000
FTUS43 KFGF 200520
TAFBJI
TAF
KBJI 200520Z 2006/2106 16008KT 3/4SM BR OVC002
     FM200700 16007KT 1/4SM FG OVC002
     FM201600 13005KT 1/2SM FG OVC002
     FM201800 14006KT P6SM OVC003=

USA.gov is the U.S. government's official web portal to all federal, state and local government web resources and services.